createdAt,value
2018-06-16T00:02:59.894Z,76.22
2018-06-16T00:05:28.336Z,75.81
2018-06-16T00:07:56.928Z,75.73
2018-06-16T00:10:25.361Z,76.43
2018-06-16T00:12:53.883Z,76.08
2018-06-16T00:15:22.372Z,76.38
2018-06-16T00:17:50.836Z,76.15
2018-06-16T00:20:19.336Z,76.74
2018-06-16T00:22:47.852Z,76.80
2018-06-16T00:25:16.282Z,76.16
2018-06-16T00:27:44.780Z,75.99
2018-06-16T00:30:13.198Z,75.87
2018-06-16T00:32:41.720Z,75.71
2018-06-16T00:35:10.220Z,76.07
2018-06-16T00:37:38.800Z,75.96
2018-06-16T00:40:07.294Z,75.96
2018-06-16T00:42:35.853Z,75.70
2018-06-16T00:45:04.809Z,76.00
2018-06-16T00:47:33.340Z,75.92
2018-06-16T00:50:02.035Z,76.33
2018-06-16T00:52:30.565Z,76.28
2018-06-16T00:54:59.084Z,76.19
2018-06-16T00:57:38.940Z,76.66
2018-06-16T01:00:07.375Z,76.60
2018-06-16T01:02:35.914Z,76.86
2018-06-16T01:05:04.446Z,76.82
2018-06-16T01:07:33.745Z,76.80
2018-06-16T01:10:02.186Z,76.46
2018-06-16T01:12:30.764Z,76.75
2018-06-16T01:14:59.246Z,76.97
2018-06-16T01:17:27.716Z,76.46
2018-06-16T01:19:56.243Z,76.68
2018-06-16T01:22:24.731Z,76.61
2018-06-16T01:25:05.871Z,76.84
2018-06-16T01:27:34.317Z,76.71
2018-06-16T01:30:02.758Z,76.68
2018-06-16T01:32:31.200Z,76.90
2018-06-16T01:34:59.682Z,76.80
2018-06-16T01:37:28.188Z,76.94
2018-06-16T01:39:56.875Z,76.36
2018-06-16T01:42:25.321Z,76.86
2018-06-16T01:44:53.807Z,76.74
2018-06-16T01:47:22.215Z,76.50
2018-06-16T01:49:50.789Z,76.33
2018-06-16T01:52:19.262Z,76.30
2018-06-16T01:54:47.749Z,76.78
2018-06-16T01:57:16.216Z,76.36
2018-06-16T01:59:44.694Z,76.71
2018-06-16T02:02:20.863Z,76.82
2018-06-16T02:04:49.353Z,77.31
2018-06-16T02:07:36.297Z,77.47
2018-06-16T02:10:23.934Z,77.32
2018-06-16T02:13:09.885Z,76.65
2018-06-16T02:15:38.381Z,76.95
2018-06-16T02:18:06.865Z,76.52
2018-06-16T02:20:35.523Z,76.09
2018-06-16T02:23:03.997Z,76.45
2018-06-16T02:25:32.734Z,76.47
2018-06-16T02:28:01.301Z,76.10
2018-06-16T02:30:29.721Z,75.73
2018-06-16T02:32:58.264Z,76.22
2018-06-16T02:35:27.149Z,75.61
2018-06-16T02:37:56.211Z,75.94
2018-06-16T02:40:25.381Z,75.65
2018-06-16T02:42:54.324Z,75.70
2018-06-16T02:45:22.818Z,75.86
2018-06-16T02:47:51.301Z,75.85
2018-06-16T02:50:51.129Z,76.32
2018-06-16T02:53:19.675Z,76.47
2018-06-16T02:55:48.293Z,76.42
2018-06-16T02:58:16.762Z,76.70
2018-06-16T03:00:45.236Z,76.47
2018-06-16T03:03:13.804Z,76.73
2018-06-16T03:05:42.197Z,76.68
2018-06-16T03:08:10.739Z,77.29
2018-06-16T03:10:39.289Z,76.94
2018-06-16T03:13:08.609Z,77.20
2018-06-16T03:15:37.272Z,76.84
2018-06-16T03:18:05.858Z,77.41
2018-06-16T03:20:34.386Z,77.10
2018-06-16T03:23:02.922Z,77.49
2018-06-16T03:25:31.566Z,77.56
2018-06-16T03:28:00.001Z,77.38
2018-06-16T03:30:28.473Z,77.49
2018-06-16T03:32:57.075Z,77.75
2018-06-16T03:35:25.638Z,77.85
2018-06-16T03:38:11.933Z,78.01
2018-06-16T03:40:40.421Z,78.27
2018-06-16T03:43:10.424Z,78.26
2018-06-16T03:45:38.906Z,78.66
2018-06-16T03:48:07.337Z,78.72
2018-06-16T03:50:35.932Z,78.72
2018-06-16T03:53:04.503Z,78.25
2018-06-16T03:55:32.933Z,78.61
2018-06-16T03:58:01.432Z,78.32
2018-06-16T04:00:29.905Z,78.60
2018-06-16T04:02:58.396Z,78.79
2018-06-16T04:05:26.889Z,78.24
2018-06-16T04:07:55.372Z,78.28
2018-06-16T04:10:23.824Z,78.17
2018-06-16T04:12:52.308Z,78.37
2018-06-16T04:15:20.787Z,78.00
2018-06-16T04:17:49.339Z,78.22
2018-06-16T04:20:17.773Z,78.03
2018-06-16T04:22:46.232Z,78.47
2018-06-16T04:25:14.732Z,78.51
2018-06-16T04:27:43.294Z,78.47
2018-06-16T04:30:11.784Z,78.51
2018-06-16T04:32:40.201Z,78.31
2018-06-16T04:35:08.757Z,78.29
2018-06-16T04:37:37.182Z,78.30
2018-06-16T04:40:14.650Z,78.79
2018-06-16T04:42:43.118Z,78.34
2018-06-16T04:45:11.565Z,78.57
2018-06-16T04:47:40.068Z,78.99
2018-06-16T04:50:08.513Z,78.57
2018-06-16T04:52:37.009Z,78.47
2018-06-16T04:55:05.507Z,78.92
2018-06-16T04:57:34.075Z,78.48
2018-06-16T05:00:02.508Z,78.79
2018-06-16T05:02:31.038Z,78.69
2018-06-16T05:04:59.549Z,78.44
2018-06-16T05:11:15.704Z,78.16
2018-06-16T05:13:44.188Z,77.66
2018-06-16T05:16:12.728Z,77.95
2018-06-16T05:18:41.210Z,78.00
2018-06-16T05:21:09.677Z,77.54
2018-06-16T05:23:38.166Z,77.19
2018-06-16T05:26:06.669Z,77.11
2018-06-16T05:28:35.140Z,77.29
2018-06-16T05:31:03.618Z,77.29
2018-06-16T05:33:32.138Z,76.96
2018-06-16T05:36:00.584Z,76.77
2018-06-16T05:38:29.120Z,76.75
2018-06-16T05:40:57.585Z,76.45
2018-06-16T05:43:26.041Z,76.00
2018-06-16T05:45:54.607Z,75.80
2018-06-16T05:48:23.097Z,75.84
2018-06-16T05:50:51.688Z,75.26
2018-06-16T05:53:20.256Z,75.00
2018-06-16T05:56:16.056Z,74.99
2018-06-16T05:58:44.551Z,74.50
2018-06-16T06:01:13.099Z,74.15
2018-06-16T06:03:41.639Z,74.05
2018-06-16T06:06:10.125Z,74.16
2018-06-16T06:08:38.576Z,73.85
2018-06-16T06:11:07.014Z,73.27
2018-06-16T06:13:35.560Z,72.87
2018-06-16T06:16:04.057Z,72.74
2018-06-16T06:18:39.797Z,71.85
2018-06-16T06:21:08.368Z,71.28
2018-06-16T06:23:36.852Z,71.38
2018-06-16T06:26:05.450Z,70.31
2018-06-16T06:28:33.937Z,70.13
2018-06-16T06:31:02.361Z,69.57
2018-06-16T06:33:30.809Z,69.70
2018-06-16T06:35:59.321Z,69.91
2018-06-16T06:38:27.841Z,69.61
2018-06-16T06:40:56.313Z,69.28
2018-06-16T06:43:24.819Z,69.30
2018-06-16T06:45:54.431Z,68.80
2018-06-16T06:48:23.012Z,68.47
2018-06-16T06:50:51.500Z,68.39
2018-06-16T06:53:19.972Z,67.71
2018-06-16T06:55:48.385Z,67.60
2018-06-16T06:58:16.937Z,66.90
2018-06-16T07:00:45.461Z,66.98
2018-06-16T07:03:14.010Z,66.91
2018-06-16T07:05:50.174Z,66.84
2018-06-16T07:08:18.675Z,66.65
2018-06-16T07:10:47.299Z,66.24
2018-06-16T07:13:15.581Z,65.87
2018-06-16T07:15:44.107Z,65.37
2018-06-16T07:18:12.564Z,65.35
2018-06-16T07:20:54.491Z,65.49
2018-06-16T07:23:23.066Z,65.17
2018-06-16T07:25:51.536Z,64.47
2018-06-16T07:28:20.018Z,64.34
2018-06-16T07:30:48.501Z,63.78
2018-06-16T07:33:38.374Z,63.67
2018-06-16T07:36:06.821Z,62.64
2018-06-16T07:38:35.249Z,62.39
2018-06-16T07:41:03.838Z,62.57
2018-06-16T07:43:32.313Z,61.90
2018-06-16T07:46:00.788Z,62.21
2018-06-16T07:48:29.681Z,61.51
2018-06-16T07:50:58.524Z,61.48
2018-06-16T07:53:26.980Z,60.46
2018-06-16T07:55:55.524Z,60.61
2018-06-16T07:58:24.586Z,60.08
2018-06-16T08:01:33.645Z,60.34
2018-06-16T08:04:02.156Z,60.12
2018-06-16T08:06:30.727Z,59.29
2018-06-16T08:08:59.228Z,59.49
2018-06-16T08:11:27.812Z,59.02
2018-06-16T08:13:56.316Z,58.58
2018-06-16T08:16:24.768Z,58.86
2018-06-16T08:18:53.237Z,58.01
2018-06-16T08:21:21.725Z,57.94
2018-06-16T08:23:50.248Z,57.59
2018-06-16T08:26:18.791Z,57.65
2018-06-16T08:28:47.261Z,57.15
2018-06-16T08:31:15.754Z,57.26
2018-06-16T08:33:44.234Z,57.79
2018-06-16T08:36:12.838Z,57.56
2018-06-16T08:38:41.405Z,56.71
2018-06-16T08:41:09.881Z,56.80
2018-06-16T08:43:38.482Z,57.31
2018-06-16T08:46:06.960Z,56.91
2018-06-16T08:48:35.490Z,56.48
2018-06-16T08:51:03.941Z,56.41
2018-06-16T08:53:32.536Z,56.86
2018-06-16T08:56:01.084Z,56.24
2018-06-16T08:58:29.755Z,56.40
2018-06-16T09:00:58.294Z,56.44
2018-06-16T09:03:26.764Z,56.19
2018-06-16T09:05:55.615Z,56.51
2018-06-16T09:08:24.062Z,56.18
2018-06-16T09:10:52.598Z,56.60
2018-06-16T09:13:21.157Z,56.10
2018-06-16T09:15:49.665Z,55.47
2018-06-16T09:18:18.195Z,54.73
2018-06-16T09:20:46.735Z,54.12
2018-06-16T09:23:15.305Z,54.17
2018-06-16T09:25:57.799Z,54.66
2018-06-16T09:28:26.297Z,54.59
2018-06-16T09:30:54.848Z,54.32
2018-06-16T09:33:24.263Z,53.00
2018-06-16T09:35:52.776Z,52.86
2018-06-16T09:38:21.331Z,51.76
2018-06-16T09:40:49.819Z,50.66
2018-06-16T09:43:18.449Z,50.61
2018-06-16T09:45:46.881Z,50.68
2018-06-16T09:48:15.385Z,50.00
2018-06-16T09:50:43.870Z,49.09
2018-06-16T09:53:12.421Z,48.53
2018-06-16T09:55:41.017Z,48.58
2018-06-16T09:58:09.505Z,47.15
2018-06-16T10:00:46.313Z,47.52
2018-06-16T10:03:14.772Z,45.72
2018-06-16T10:05:43.338Z,45.91
2018-06-16T10:08:11.796Z,46.80
2018-06-16T10:10:41.317Z,45.60
2018-06-16T10:13:09.741Z,46.61
2018-06-16T10:15:38.325Z,46.88
2018-06-16T10:18:06.885Z,46.45
2018-06-16T10:20:35.332Z,46.93
2018-06-16T10:23:03.860Z,46.55
2018-06-16T10:25:32.314Z,47.45
2018-06-16T10:28:03.264Z,48.58
2018-06-16T10:30:31.744Z,48.61
2018-06-16T10:33:00.723Z,49.76
2018-06-16T10:35:29.162Z,48.91
2018-06-16T10:37:57.737Z,47.46
2018-06-16T10:40:26.799Z,46.36
2018-06-16T10:42:55.608Z,46.45
2018-06-16T10:45:24.078Z,46.10
2018-06-16T10:47:52.755Z,46.51
2018-06-16T10:50:21.334Z,47.30
2018-06-16T10:52:50.027Z,48.13
2018-06-16T10:55:18.502Z,48.36
2018-06-16T10:57:47.096Z,48.98
2018-06-16T11:00:15.568Z,48.75
2018-06-16T11:02:44.058Z,48.43
2018-06-16T11:05:12.621Z,48.36
2018-06-16T11:07:41.217Z,47.06
2018-06-16T11:10:09.714Z,45.60
2018-06-16T11:12:38.212Z,44.94
2018-06-16T11:15:06.821Z,44.23
2018-06-16T11:17:35.378Z,44.94
2018-06-16T11:20:04.555Z,45.14
2018-06-16T11:22:33.040Z,44.85
2018-06-16T11:25:01.473Z,44.43
2018-06-16T11:27:53.936Z,43.46
2018-06-16T11:30:22.411Z,42.52
2018-06-16T11:32:50.957Z,40.65
2018-06-16T11:35:19.471Z,40.12
2018-06-16T11:37:47.972Z,40.23
2018-06-16T11:40:16.425Z,40.45
2018-06-16T11:42:44.876Z,40.63
2018-06-16T11:45:26.632Z,40.45
2018-06-16T11:47:55.217Z,39.72
2018-06-16T11:50:23.751Z,39.04
2018-06-16T11:52:52.367Z,38.51
2018-06-16T11:55:20.872Z,37.85
2018-06-16T11:57:49.333Z,37.99
2018-06-16T12:00:17.781Z,38.62
2018-06-16T12:02:46.269Z,39.87
2018-06-16T12:05:14.706Z,41.96
2018-06-16T12:07:43.269Z,42.75
2018-06-16T12:10:11.799Z,42.58
2018-06-16T12:12:40.332Z,40.88
2018-06-16T12:15:08.808Z,39.91
2018-06-16T12:17:38.411Z,39.12
2018-06-16T12:20:06.890Z,38.79
2018-06-16T12:22:35.382Z,37.39
2018-06-16T12:25:04.006Z,37.01
2018-06-16T12:27:32.451Z,35.56
2018-06-16T12:30:01.231Z,35.22
2018-06-16T12:32:29.693Z,33.71
2018-06-16T12:34:58.198Z,33.89
2018-06-16T12:37:26.745Z,33.28
2018-06-16T12:39:55.186Z,33.21
2018-06-16T12:42:23.811Z,32.39
2018-06-16T12:44:52.328Z,31.74
2018-06-16T12:47:20.912Z,31.61
2018-06-16T12:49:53.225Z,31.72
2018-06-16T12:52:21.777Z,30.61
2018-06-16T12:54:50.249Z,31.72
2018-06-16T12:57:18.817Z,31.02
2018-06-16T12:59:47.303Z,31.17
2018-06-16T13:02:15.725Z,29.85
2018-06-16T13:04:44.372Z,28.26
2018-06-16T13:07:13.575Z,29.33
2018-06-16T13:09:42.128Z,29.79
2018-06-16T13:12:10.580Z,30.30
2018-06-16T13:14:39.026Z,30.67
2018-06-16T13:17:07.638Z,29.44
2018-06-16T13:19:36.507Z,29.60
2018-06-16T13:22:05.288Z,29.60
2018-06-16T13:24:33.947Z,30.57
2018-06-16T13:27:02.536Z,30.71
2018-06-16T13:29:31.073Z,31.13
2018-06-16T13:31:59.672Z,29.95
2018-06-16T13:34:28.243Z,30.06
2018-06-16T13:36:56.732Z,29.87
2018-06-16T13:39:25.160Z,28.85
2018-06-16T13:41:53.829Z,29.18
2018-06-16T13:44:22.665Z,29.48
2018-06-16T13:46:51.205Z,29.56
2018-06-16T13:49:20.310Z,30.58
2018-06-16T13:51:48.886Z,31.98
2018-06-16T13:54:17.458Z,33.02
2018-06-16T13:56:46.256Z,33.79
2018-06-16T13:59:14.772Z,34.39
2018-06-16T14:01:43.215Z,33.38
2018-06-16T14:04:11.697Z,33.66
2018-06-16T14:06:40.251Z,34.01
2018-06-16T14:09:09.989Z,33.46
2018-06-16T14:11:38.413Z,33.48
2018-06-16T14:14:07.142Z,34.17
2018-06-16T14:16:35.642Z,33.63
2018-06-16T14:19:04.094Z,34.23
2018-06-16T14:21:32.598Z,34.84
2018-06-16T14:24:01.018Z,35.18
2018-06-16T14:26:29.771Z,35.52
2018-06-16T14:28:58.261Z,34.53
2018-06-16T14:32:10.253Z,33.58
2018-06-16T14:34:39.443Z,34.57
2018-06-16T14:37:17.784Z,34.94
2018-06-16T14:39:46.281Z,36.32
2018-06-16T14:42:14.829Z,36.12
2018-06-16T14:44:43.341Z,34.36
2018-06-16T14:47:11.948Z,34.60
2018-06-16T14:49:40.473Z,36.24
2018-06-16T14:52:08.957Z,37.06
2018-06-16T14:54:38.356Z,36.05
2018-06-16T14:57:06.874Z,35.66
2018-06-16T14:59:35.467Z,36.52
2018-06-16T15:02:04.320Z,37.92
2018-06-16T15:04:32.912Z,39.28
2018-06-16T15:07:01.717Z,39.36
2018-06-16T15:09:31.372Z,39.39
2018-06-16T15:11:59.861Z,40.33
2018-06-16T15:14:28.350Z,41.24
2018-06-16T15:16:56.874Z,40.98
2018-06-16T15:19:25.478Z,41.49
2018-06-16T15:21:54.080Z,42.25
2018-06-16T15:24:22.656Z,42.51
2018-06-16T15:26:51.415Z,43.63
2018-06-16T15:29:19.856Z,44.57
2018-06-16T15:31:48.514Z,44.67
2018-06-16T15:34:17.012Z,46.89
2018-06-16T15:36:46.643Z,49.64
2018-06-16T15:39:15.161Z,50.54
2018-06-16T15:41:43.605Z,52.67
2018-06-16T15:44:12.034Z,52.41
2018-06-16T15:46:40.512Z,51.71
2018-06-16T15:49:09.048Z,51.98
2018-06-16T15:51:37.532Z,51.70
2018-06-16T15:54:06.009Z,51.41
2018-06-16T15:56:34.502Z,51.56
2018-06-16T15:59:03.032Z,51.86
2018-06-16T16:01:31.568Z,55.05
2018-06-16T16:04:00.037Z,58.54
2018-06-16T16:06:28.484Z,62.07
2018-06-16T16:08:57.109Z,66.69
2018-06-16T16:11:25.549Z,69.70
2018-06-16T16:13:54.483Z,72.11
2018-06-16T16:16:26.575Z,72.99
2018-06-16T16:18:55.066Z,74.14
2018-06-16T16:21:23.592Z,75.11
2018-06-16T16:23:52.022Z,74.10
2018-06-16T16:26:20.578Z,73.39
2018-06-16T16:28:51.368Z,74.13
2018-06-16T16:31:21.566Z,75.54
2018-06-16T16:33:50.368Z,76.28
2018-06-16T16:36:18.917Z,76.18
2018-06-16T16:38:47.367Z,76.29
2018-06-16T16:41:15.871Z,76.82
2018-06-16T16:43:44.413Z,75.93
2018-06-16T16:46:12.892Z,73.64
2018-06-16T16:48:41.323Z,72.99
2018-06-16T16:51:09.892Z,71.72
2018-06-16T16:53:38.342Z,71.88
2018-06-16T16:56:06.786Z,71.72
2018-06-16T16:58:35.387Z,70.32
2018-06-16T17:01:03.961Z,69.35
2018-06-16T17:03:32.431Z,68.56
2018-06-16T17:06:00.985Z,68.24
2018-06-16T17:08:29.447Z,69.84
2018-06-16T17:10:57.934Z,69.44
2018-06-16T17:13:26.422Z,68.70
2018-06-16T17:15:54.909Z,67.13
2018-06-16T17:18:23.373Z,67.83
2018-06-16T17:20:51.863Z,66.47
2018-06-16T17:23:23.046Z,67.39
2018-06-16T17:25:51.534Z,67.36
2018-06-16T17:28:20.094Z,66.41
2018-06-16T17:30:48.673Z,65.42
2018-06-16T17:33:17.193Z,65.70
2018-06-16T17:35:45.843Z,64.07
2018-06-16T17:38:37.794Z,62.98
2018-06-16T17:41:06.402Z,60.83
2018-06-16T17:43:44.672Z,58.21
2018-06-16T17:46:13.340Z,58.16
2018-06-16T17:48:41.758Z,58.56
2018-06-16T17:51:10.345Z,59.39
2018-06-16T17:53:38.895Z,60.35
2018-06-16T17:56:07.581Z,60.83
2018-06-16T17:58:36.073Z,61.66
2018-06-16T18:01:04.681Z,61.36
2018-06-16T18:03:34.258Z,61.13
2018-06-16T18:06:02.800Z,61.65
2018-06-16T18:08:31.357Z,60.72
2018-06-16T18:10:59.892Z,60.47
2018-06-16T18:13:28.405Z,60.43
2018-06-16T18:15:57.272Z,60.03
2018-06-16T18:18:25.717Z,59.82
2018-06-16T18:20:54.638Z,59.80
2018-06-16T18:23:23.234Z,59.97
2018-06-16T18:25:51.673Z,60.17
2018-06-16T18:28:20.192Z,60.39
2018-06-16T18:30:48.666Z,60.58
2018-06-16T18:33:17.161Z,60.63
2018-06-16T18:35:45.726Z,60.28
2018-06-16T18:38:14.165Z,60.04
2018-06-16T18:40:42.775Z,59.84
2018-06-16T18:43:13.179Z,59.86
2018-06-16T18:45:44.061Z,60.59
2018-06-16T18:48:15.969Z,60.64
2018-06-16T18:50:44.664Z,60.92
2018-06-16T18:53:13.125Z,60.70
2018-06-16T18:55:41.578Z,60.44
2018-06-16T18:58:10.140Z,59.79
2018-06-16T19:00:42.972Z,59.73
2018-06-16T19:03:13.067Z,60.09
2018-06-16T19:05:41.561Z,60.83
2018-06-16T19:08:10.124Z,60.34
2018-06-16T19:11:22.094Z,60.77
2018-06-16T19:13:50.624Z,60.32
2018-06-16T19:16:19.161Z,60.84
2018-06-16T19:18:47.713Z,60.38
2018-06-16T19:21:21.572Z,60.09
2018-06-16T19:23:50.274Z,60.11
2018-06-16T19:26:18.772Z,60.55
2018-06-16T19:28:47.205Z,60.70
2018-06-16T19:31:18.085Z,60.75
2018-06-16T19:34:12.294Z,60.48
2018-06-16T19:47:01.599Z,62.02
2018-06-16T19:49:30.178Z,63.94
2018-06-16T19:52:11.705Z,63.29
2018-06-16T19:54:40.609Z,62.93
2018-06-16T19:57:09.550Z,63.42
2018-06-16T19:59:38.166Z,62.46
2018-06-16T20:02:07.095Z,62.54
2018-06-16T20:04:35.772Z,63.24
2018-06-16T20:07:19.767Z,63.18
2018-06-16T20:09:48.256Z,62.37
2018-06-16T20:12:16.863Z,62.37
2018-06-16T20:14:45.327Z,61.78
2018-06-16T20:17:14.091Z,62.63
2018-06-16T20:19:42.634Z,62.61
2018-06-16T20:22:11.179Z,63.27
2018-06-16T20:24:39.782Z,63.25
2018-06-16T20:27:08.542Z,64.23
2018-06-16T20:29:37.192Z,63.27
2018-06-16T20:32:05.912Z,62.83
2018-06-16T20:34:34.521Z,62.40
2018-06-16T20:37:03.149Z,62.24
2018-06-16T20:39:31.614Z,62.16
2018-06-16T20:42:00.168Z,62.76
2018-06-16T20:44:28.874Z,62.11
2018-06-16T20:47:06.965Z,62.29
2018-06-16T20:49:35.433Z,62.41
2018-06-16T20:52:04.059Z,62.65
2018-06-16T20:54:32.595Z,63.12
2018-06-16T20:57:01.069Z,63.94
2018-06-16T20:59:29.529Z,65.18
2018-06-16T21:01:58.025Z,65.09
2018-06-16T21:04:26.526Z,65.27
2018-06-16T21:06:55.135Z,66.52
2018-06-16T21:09:23.694Z,66.20
2018-06-16T21:11:52.285Z,66.00
2018-06-16T21:14:20.850Z,66.22
2018-06-16T21:16:49.358Z,67.52
2018-06-16T21:19:17.836Z,67.35
2018-06-16T21:21:46.431Z,67.73
2018-06-16T21:24:14.993Z,67.95
2018-06-16T21:26:43.471Z,68.43
2018-06-16T21:29:11.986Z,69.52
2018-06-16T21:31:40.529Z,69.46
2018-06-16T21:34:08.966Z,69.86
2018-06-16T21:36:37.524Z,70.83
2018-06-16T21:39:07.644Z,72.00
2018-06-16T21:41:36.222Z,72.03
2018-06-16T21:44:04.811Z,72.39
2018-06-16T21:46:33.314Z,72.52
2018-06-16T21:49:02.498Z,72.39
2018-06-16T21:51:31.156Z,72.62
2018-06-16T21:53:59.845Z,72.67
2018-06-16T21:56:28.420Z,73.42
2018-06-16T21:58:57.011Z,73.56
2018-06-16T22:01:31.767Z,73.97
2018-06-16T22:04:00.646Z,74.24
2018-06-16T22:06:29.156Z,73.75
2018-06-16T22:08:58.429Z,74.10
2018-06-16T22:11:27.085Z,73.87
2018-06-16T22:13:55.564Z,74.21
2018-06-16T22:16:24.070Z,74.51
2018-06-16T22:18:52.703Z,74.83
2018-06-16T22:21:22.158Z,75.13
2018-06-16T22:23:50.618Z,75.15
2018-06-16T22:26:19.112Z,75.23
2018-06-16T22:28:47.631Z,75.16
2018-06-16T22:31:16.649Z,76.11
2018-06-16T22:33:45.178Z,76.23
2018-06-16T22:36:13.806Z,75.97
2018-06-16T22:39:16.923Z,76.44
2018-06-16T22:41:45.773Z,75.19
2018-06-16T22:44:14.336Z,74.56
2018-06-16T22:46:42.896Z,73.99
2018-06-16T22:49:11.384Z,73.09
2018-06-16T22:51:40.762Z,71.99
2018-06-16T22:54:09.732Z,70.73
2018-06-16T22:56:38.193Z,70.07
2018-06-16T22:59:06.673Z,69.90
2018-06-16T23:01:35.283Z,69.44
2018-06-16T23:04:03.829Z,68.99
2018-06-16T23:06:32.499Z,68.58
2018-06-16T23:09:01.009Z,68.53
2018-06-16T23:11:29.558Z,68.46
2018-06-16T23:13:58.034Z,68.31
2018-06-16T23:16:26.523Z,68.43
2018-06-16T23:18:55.369Z,68.23
2018-06-16T23:21:23.905Z,68.52
2018-06-16T23:23:52.420Z,68.46
2018-06-16T23:26:25.681Z,68.33
2018-06-16T23:28:54.148Z,68.58
2018-06-16T23:31:22.817Z,68.46
2018-06-16T23:33:51.254Z,68.59
2018-06-16T23:36:19.716Z,68.86
2018-06-16T23:38:48.177Z,68.60
2018-06-16T23:41:16.673Z,68.59
2018-06-16T23:43:45.215Z,69.13
2018-06-16T23:46:13.837Z,69.00
2018-06-16T23:48:42.261Z,68.35
2018-06-16T23:51:10.704Z,68.58
2018-06-16T23:53:39.174Z,67.71
2018-06-16T23:56:07.718Z,68.02
2018-06-16T23:58:37.161Z,67.56
